sensor_id;sensor_type;location;lat;lon;timestamp;P1;durP1;ratioP1;P2;durP2;ratioP2
70199;SDS011;57587;55.688;37.600;2022-08-11T00:02:37;4.18;;;2.33;;
70199;SDS011;57587;55.688;37.600;2022-08-11T00:05:15;3.40;;;2.20;;
70199;SDS011;57587;55.688;37.600;2022-08-11T00:07:52;4.80;;;2.33;;
70199;SDS011;57587;55.688;37.600;2022-08-11T00:10:23;4.07;;;2.10;;
70199;SDS011;57587;55.688;37.600;2022-08-11T00:12:57;6.80;;;2.30;;
70199;SDS011;57587;55.688;37.600;2022-08-11T00:15:28;4.05;;;2.20;;
70199;SDS011;57587;55.688;37.600;2022-08-11T00:18:05;8.77;;;2.17;;
70199;SDS011;57587;55.688;37.600;2022-08-11T00:20:34;6.07;;;2.45;;
70199;SDS011;57587;55.688;37.600;2022-08-11T00:23:06;4.50;;;2.60;;
70199;SDS011;57587;55.688;37.600;2022-08-11T00:25:40;4.90;;;2.50;;
70199;SDS011;57587;55.688;37.600;2022-08-11T00:28:25;5.72;;;2.53;;
70199;SDS011;57587;55.688;37.600;2022-08-11T00:31:03;3.13;;;2.15;;
70199;SDS011;57587;55.688;37.600;2022-08-11T00:36:13;4.10;;;2.13;;
70199;SDS011;57587;55.688;37.600;2022-08-11T00:38:48;5.20;;;2.28;;
70199;SDS011;57587;55.688;37.600;2022-08-11T00:59:04;5.05;;;2.55;;
70199;SDS011;57587;55.688;37.600;2022-08-11T01:13:13;5.57;;;2.13;;
70199;SDS011;57587;55.688;37.600;2022-08-11T01:21:45;3.78;;;2.20;;
70199;SDS011;57587;55.688;37.600;2022-08-11T01:27:31;4.22;;;2.50;;
70199;SDS011;57587;55.688;37.600;2022-08-11T01:47:53;4.90;;;2.22;;
70199;SDS011;57587;55.688;37.600;2022-08-11T01:56:21;4.68;;;2.35;;
70199;SDS011;57587;55.688;37.600;2022-08-11T01:59:35;4.20;;;2.50;;
70199;SDS011;57587;55.688;37.600;2022-08-11T02:05:16;7.45;;;2.88;;
70199;SDS011;57587;55.688;37.600;2022-08-11T02:08:33;5.30;;;2.53;;
70199;SDS011;57587;55.688;37.600;2022-08-11T02:11:26;3.67;;;2.80;;
70199;SDS011;57587;55.688;37.600;2022-08-11T02:14:06;5.50;;;2.35;;
70199;SDS011;57587;55.688;37.600;2022-08-11T02:19:29;4.50;;;2.65;;
70199;SDS011;57587;55.688;37.600;2022-08-11T02:26:28;3.33;;;2.55;;
70199;SDS011;57587;55.688;37.600;2022-08-11T02:29:50;3.45;;;2.50;;
70199;SDS011;57587;55.688;37.600;2022-08-11T02:32:26;5.07;;;2.90;;
70199;SDS011;57587;55.688;37.600;2022-08-11T02:35:22;4.00;;;2.80;;
70199;SDS011;57587;55.688;37.600;2022-08-11T02:38:42;3.83;;;2.78;;
70199;SDS011;57587;55.688;37.600;2022-08-11T02:41:22;4.03;;;2.55;;
70199;SDS011;57587;55.688;37.600;2022-08-11T02:49:46;5.93;;;2.67;;
70199;SDS011;57587;55.688;37.600;2022-08-11T02:52:35;4.63;;;2.42;;
70199;SDS011;57587;55.688;37.600;2022-08-11T03:01:22;5.00;;;2.50;;
70199;SDS011;57587;55.688;37.600;2022-08-11T03:04:09;6.43;;;2.90;;
70199;SDS011;57587;55.688;37.600;2022-08-11T03:06:51;4.82;;;2.30;;
70199;SDS011;57587;55.688;37.600;2022-08-11T03:12:05;3.97;;;2.50;;
70199;SDS011;57587;55.688;37.600;2022-08-11T03:15:02;5.32;;;2.60;;
70199;SDS011;57587;55.688;37.600;2022-08-11T03:21:23;4.07;;;2.70;;
70199;SDS011;57587;55.688;37.600;2022-08-11T03:24:18;5.30;;;3.00;;
70199;SDS011;57587;55.688;37.600;2022-08-11T03:27:10;5.22;;;2.78;;
70199;SDS011;57587;55.688;37.600;2022-08-11T03:30:12;4.67;;;2.87;;
70199;SDS011;57587;55.688;37.600;2022-08-11T03:32:56;5.63;;;2.88;;
70199;SDS011;57587;55.688;37.600;2022-08-11T03:36:09;5.43;;;2.95;;
70199;SDS011;57587;55.688;37.600;2022-08-11T03:38:56;5.38;;;3.50;;
70199;SDS011;57587;55.688;37.600;2022-08-11T03:41:34;7.55;;;3.50;;
70199;SDS011;57587;55.688;37.600;2022-08-11T03:52:17;13.23;;;11.63;;
70199;SDS011;57587;55.688;37.600;2022-08-11T03:54:54;7.53;;;4.93;;
70199;SDS011;57587;55.688;37.600;2022-08-11T04:03:26;5.85;;;4.05;;
70199;SDS011;57587;55.688;37.600;2022-08-11T04:18:24;5.75;;;4.30;;
70199;SDS011;57587;55.688;37.600;2022-08-11T04:35:30;7.28;;;3.65;;
70199;SDS011;57587;55.688;37.600;2022-08-11T04:49:49;7.07;;;3.80;;
70199;SDS011;57587;55.688;37.600;2022-08-11T04:56:05;6.40;;;4.00;;
70199;SDS011;57587;55.688;37.600;2022-08-11T05:17:14;7.30;;;4.22;;
70199;SDS011;57587;55.688;37.600;2022-08-11T05:20:10;8.18;;;4.40;;
70199;SDS011;57587;55.688;37.600;2022-08-11T05:22:59;10.38;;;4.30;;
70199;SDS011;57587;55.688;37.600;2022-08-11T05:25:51;8.83;;;4.17;;
70199;SDS011;57587;55.688;37.600;2022-08-11T05:29:00;6.90;;;3.90;;
70199;SDS011;57587;55.688;37.600;2022-08-11T05:31:50;8.95;;;4.90;;
70199;SDS011;57587;55.688;37.600;2022-08-11T05:34:44;7.05;;;4.60;;
70199;SDS011;57587;55.688;37.600;2022-08-11T05:39:56;8.57;;;4.70;;
70199;SDS011;57587;55.688;37.600;2022-08-11T05:42:48;7.90;;;4.47;;
70199;SDS011;57587;55.688;37.600;2022-08-11T05:45:39;7.18;;;4.30;;
70199;SDS011;57587;55.688;37.600;2022-08-11T05:48:34;6.95;;;4.45;;
70199;SDS011;57587;55.688;37.600;2022-08-11T05:51:31;12.20;;;4.35;;
70199;SDS011;57587;55.688;37.600;2022-08-11T05:54:23;8.00;;;4.20;;
70199;SDS011;57587;55.688;37.600;2022-08-11T05:57:18;9.95;;;4.30;;
70199;SDS011;57587;55.688;37.600;2022-08-11T06:00:07;12.00;;;4.57;;
70199;SDS011;57587;55.688;37.600;2022-08-11T06:02:42;9.18;;;3.92;;
70199;SDS011;57587;55.688;37.600;2022-08-11T06:05:14;8.43;;;4.82;;
70199;SDS011;57587;55.688;37.600;2022-08-11T06:07:45;8.20;;;4.23;;
70199;SDS011;57587;55.688;37.600;2022-08-11T06:10:24;9.88;;;4.00;;
70199;SDS011;57587;55.688;37.600;2022-08-11T06:13:04;6.97;;;4.05;;
70199;SDS011;57587;55.688;37.600;2022-08-11T06:15:33;8.15;;;3.97;;
70199;SDS011;57587;55.688;37.600;2022-08-11T06:18:11;17.70;;;4.93;;
70199;SDS011;57587;55.688;37.600;2022-08-11T06:20:46;8.33;;;4.23;;
70199;SDS011;57587;55.688;37.600;2022-08-11T06:23:24;8.80;;;4.00;;
70199;SDS011;57587;55.688;37.600;2022-08-11T06:26:01;7.57;;;4.43;;
70199;SDS011;57587;55.688;37.600;2022-08-11T06:28:38;11.48;;;6.10;;
70199;SDS011;57587;55.688;37.600;2022-08-11T06:31:14;7.05;;;3.90;;
70199;SDS011;57587;55.688;37.600;2022-08-11T06:36:34;10.05;;;3.60;;
70199;SDS011;57587;55.688;37.600;2022-08-11T06:41:58;10.02;;;4.10;;
70199;SDS011;57587;55.688;37.600;2022-08-11T06:44:40;8.27;;;4.28;;
70199;SDS011;57587;55.688;37.600;2022-08-11T06:47:10;11.20;;;4.60;;
70199;SDS011;57587;55.688;37.600;2022-08-11T06:49:45;12.18;;;4.25;;
70199;SDS011;57587;55.688;37.600;2022-08-11T06:52:34;13.90;;;4.38;;
70199;SDS011;57587;55.688;37.600;2022-08-11T06:55:07;10.43;;;4.30;;
70199;SDS011;57587;55.688;37.600;2022-08-11T06:58:20;10.43;;;4.07;;
70199;SDS011;57587;55.688;37.600;2022-08-11T07:01:11;10.17;;;4.00;;
70199;SDS011;57587;55.688;37.600;2022-08-11T07:03:44;8.90;;;4.38;;
70199;SDS011;57587;55.688;37.600;2022-08-11T07:12:43;13.57;;;4.30;;
70199;SDS011;57587;55.688;37.600;2022-08-11T07:15:34;10.67;;;4.00;;
70199;SDS011;57587;55.688;37.600;2022-08-11T07:18:32;9.27;;;3.78;;
70199;SDS011;57587;55.688;37.600;2022-08-11T07:21:30;8.85;;;4.10;;
70199;SDS011;57587;55.688;37.600;2022-08-11T07:24:43;8.07;;;4.10;;
70199;SDS011;57587;55.688;37.600;2022-08-11T07:27:37;9.63;;;4.47;;
70199;SDS011;57587;55.688;37.600;2022-08-11T07:30:33;6.53;;;4.10;;
70199;SDS011;57587;55.688;37.600;2022-08-11T07:33:05;9.45;;;4.10;;
70199;SDS011;57587;55.688;37.600;2022-08-11T07:35:36;9.27;;;4.35;;
70199;SDS011;57587;55.688;37.600;2022-08-11T07:38:17;5.78;;;4.30;;
70199;SDS011;57587;55.688;37.600;2022-08-11T07:40:50;11.75;;;4.60;;
70199;SDS011;57587;55.688;37.600;2022-08-11T07:43:20;7.90;;;4.00;;
70199;SDS011;57587;55.688;37.600;2022-08-11T07:45:50;7.05;;;4.47;;
70199;SDS011;57587;55.688;37.600;2022-08-11T07:48:36;8.07;;;4.30;;
70199;SDS011;57587;55.688;37.600;2022-08-11T07:51:22;10.48;;;3.80;;
70199;SDS011;57587;55.688;37.600;2022-08-11T07:54:09;5.15;;;3.80;;
70199;SDS011;57587;55.688;37.600;2022-08-11T07:56:42;8.60;;;3.70;;
70199;SDS011;57587;55.688;37.600;2022-08-11T07:59:31;5.15;;;3.92;;
70199;SDS011;57587;55.688;37.600;2022-08-11T08:02:37;9.75;;;4.03;;
70199;SDS011;57587;55.688;37.600;2022-08-11T08:05:24;7.63;;;4.00;;
70199;SDS011;57587;55.688;37.600;2022-08-11T08:08:12;8.18;;;4.28;;
70199;SDS011;57587;55.688;37.600;2022-08-11T08:10:59;5.60;;;3.60;;
70199;SDS011;57587;55.688;37.600;2022-08-11T08:13:53;10.05;;;3.60;;
70199;SDS011;57587;55.688;37.600;2022-08-11T08:16:39;8.88;;;4.40;;
70199;SDS011;57587;55.688;37.600;2022-08-11T08:19:25;5.65;;;3.50;;
70199;SDS011;57587;55.688;37.600;2022-08-11T08:21:53;6.35;;;3.95;;
70199;SDS011;57587;55.688;37.600;2022-08-11T08:24:37;6.10;;;3.97;;
70199;SDS011;57587;55.688;37.600;2022-08-11T08:27:07;6.05;;;4.13;;
70199;SDS011;57587;55.688;37.600;2022-08-11T08:29:38;5.25;;;3.90;;
70199;SDS011;57587;55.688;37.600;2022-08-11T08:32:24;6.97;;;3.45;;
70199;SDS011;57587;55.688;37.600;2022-08-11T08:34:54;5.13;;;3.60;;
70199;SDS011;57587;55.688;37.600;2022-08-11T08:37:23;6.10;;;3.70;;
70199;SDS011;57587;55.688;37.600;2022-08-11T08:40:12;5.53;;;3.63;;
70199;SDS011;57587;55.688;37.600;2022-08-11T08:42:41;6.05;;;3.38;;
70199;SDS011;57587;55.688;37.600;2022-08-11T08:45:17;3.70;;;1.70;;
70199;SDS011;57587;55.688;37.600;2022-08-11T08:47:57;8.02;;;4.57;;
70199;SDS011;57587;55.688;37.600;2022-08-11T08:50:36;7.27;;;4.00;;
70199;SDS011;57587;55.688;37.600;2022-08-11T08:53:28;4.97;;;3.67;;
70199;SDS011;57587;55.688;37.600;2022-08-11T08:56:00;10.63;;;4.38;;
70199;SDS011;57587;55.688;37.600;2022-08-11T08:58:29;4.28;;;3.85;;
70199;SDS011;57587;55.688;37.600;2022-08-11T09:01:00;5.10;;;4.32;;
70199;SDS011;57587;55.688;37.600;2022-08-11T09:03:28;6.93;;;3.87;;
70199;SDS011;57587;55.688;37.600;2022-08-11T09:06:19;6.28;;;4.10;;
70199;SDS011;57587;55.688;37.600;2022-08-11T09:08:47;6.28;;;4.00;;
70199;SDS011;57587;55.688;37.600;2022-08-11T09:11:17;6.53;;;3.30;;
70199;SDS011;57587;55.688;37.600;2022-08-11T09:14:08;5.45;;;1.80;;
70199;SDS011;57587;55.688;37.600;2022-08-11T09:16:40;7.17;;;3.93;;
70199;SDS011;57587;55.688;37.600;2022-08-11T09:19:09;6.47;;;2.60;;
70199;SDS011;57587;55.688;37.600;2022-08-11T09:21:47;5.53;;;2.03;;
70199;SDS011;57587;55.688;37.600;2022-08-11T09:24:45;6.65;;;2.60;;
70199;SDS011;57587;55.688;37.600;2022-08-11T09:27:33;9.18;;;3.45;;
70199;SDS011;57587;55.688;37.600;2022-08-11T09:30:01;4.83;;;3.10;;
70199;SDS011;57587;55.688;37.600;2022-08-11T09:32:30;6.05;;;2.90;;
70199;SDS011;57587;55.688;37.600;2022-08-11T09:35:00;4.35;;;2.80;;
70199;SDS011;57587;55.688;37.600;2022-08-11T09:37:28;6.93;;;2.60;;
70199;SDS011;57587;55.688;37.600;2022-08-11T09:40:22;9.30;;;2.70;;
70199;SDS011;57587;55.688;37.600;2022-08-11T09:42:55;5.43;;;2.73;;
70199;SDS011;57587;55.688;37.600;2022-08-11T09:45:43;8.68;;;2.60;;
70199;SDS011;57587;55.688;37.600;2022-08-11T09:48:17;5.18;;;2.42;;
70199;SDS011;57587;55.688;37.600;2022-08-11T09:50:47;8.27;;;2.65;;
70199;SDS011;57587;55.688;37.600;2022-08-11T09:53:16;4.88;;;2.50;;
70199;SDS011;57587;55.688;37.600;2022-08-11T09:56:04;8.77;;;2.50;;
70199;SDS011;57587;55.688;37.600;2022-08-11T09:58:54;5.90;;;2.90;;
70199;SDS011;57587;55.688;37.600;2022-08-11T10:01:22;6.65;;;2.70;;
70199;SDS011;57587;55.688;37.600;2022-08-11T10:04:07;3.70;;;2.38;;
70199;SDS011;57587;55.688;37.600;2022-08-11T10:06:44;5.70;;;2.90;;
70199;SDS011;57587;55.688;37.600;2022-08-11T10:09:40;6.20;;;2.83;;
70199;SDS011;57587;55.688;37.600;2022-08-11T10:12:31;6.13;;;2.80;;
70199;SDS011;57587;55.688;37.600;2022-08-11T10:15:06;5.03;;;2.70;;
70199;SDS011;57587;55.688;37.600;2022-08-11T10:17:55;6.82;;;2.80;;
70199;SDS011;57587;55.688;37.600;2022-08-11T10:20:44;6.95;;;2.80;;
70199;SDS011;57587;55.688;37.600;2022-08-11T10:23:16;7.53;;;2.60;;
70199;SDS011;57587;55.688;37.600;2022-08-11T10:26:25;6.47;;;2.67;;
70199;SDS011;57587;55.688;37.600;2022-08-11T10:29:13;7.90;;;2.65;;
70199;SDS011;57587;55.688;37.600;2022-08-11T10:32:10;9.00;;;4.47;;
70199;SDS011;57587;55.688;37.600;2022-08-11T10:34:58;5.25;;;2.63;;
70199;SDS011;57587;55.688;37.600;2022-08-11T10:37:29;12.67;;;2.70;;
70199;SDS011;57587;55.688;37.600;2022-08-11T10:40:22;5.00;;;2.58;;
70199;SDS011;57587;55.688;37.600;2022-08-11T10:42:56;6.38;;;2.60;;
70199;SDS011;57587;55.688;37.600;2022-08-11T10:45:29;5.32;;;2.80;;
70199;SDS011;57587;55.688;37.600;2022-08-11T10:48:35;4.68;;;2.72;;
70199;SDS011;57587;55.688;37.600;2022-08-11T10:51:04;3.57;;;2.40;;
70199;SDS011;57587;55.688;37.600;2022-08-11T10:53:41;5.63;;;2.60;;
70199;SDS011;57587;55.688;37.600;2022-08-11T10:56:34;5.40;;;2.40;;
70199;SDS011;57587;55.688;37.600;2022-08-11T10:59:23;4.75;;;2.40;;
70199;SDS011;57587;55.688;37.600;2022-08-11T11:01:53;10.02;;;3.03;;
70199;SDS011;57587;55.688;37.600;2022-08-11T11:04:29;5.40;;;2.80;;
70199;SDS011;57587;55.688;37.600;2022-08-11T11:07:20;4.40;;;2.90;;
70199;SDS011;57587;55.688;37.600;2022-08-11T11:09:54;7.30;;;2.95;;
70199;SDS011;57587;55.688;37.600;2022-08-11T11:12:30;3.88;;;2.63;;
70199;SDS011;57587;55.688;37.600;2022-08-11T11:15:20;6.22;;;2.80;;
70199;SDS011;57587;55.688;37.600;2022-08-11T11:18:08;6.03;;;3.00;;
70199;SDS011;57587;55.688;37.600;2022-08-11T11:20:50;5.68;;;2.80;;
70199;SDS011;57587;55.688;37.600;2022-08-11T11:29:18;5.13;;;3.00;;
70199;SDS011;57587;55.688;37.600;2022-08-11T11:37:42;4.18;;;2.70;;
70199;SDS011;57587;55.688;37.600;2022-08-11T11:40:30;5.15;;;2.70;;
70199;SDS011;57587;55.688;37.600;2022-08-11T11:42:58;6.55;;;2.70;;
70199;SDS011;57587;55.688;37.600;2022-08-11T11:45:26;5.03;;;3.23;;
70199;SDS011;57587;55.688;37.600;2022-08-11T11:47:54;5.63;;;2.90;;
70199;SDS011;57587;55.688;37.600;2022-08-11T11:50:30;6.32;;;3.00;;
70199;SDS011;57587;55.688;37.600;2022-08-11T11:53:05;6.07;;;3.45;;
70199;SDS011;57587;55.688;37.600;2022-08-11T11:55:34;8.15;;;2.90;;
70199;SDS011;57587;55.688;37.600;2022-08-11T11:58:03;6.70;;;2.97;;
70199;SDS011;57587;55.688;37.600;2022-08-11T12:00:51;11.07;;;3.35;;
70199;SDS011;57587;55.688;37.600;2022-08-11T12:03:38;6.63;;;3.53;;
70199;SDS011;57587;55.688;37.600;2022-08-11T12:06:07;5.40;;;3.03;;
70199;SDS011;57587;55.688;37.600;2022-08-11T12:08:37;9.82;;;3.15;;
70199;SDS011;57587;55.688;37.600;2022-08-11T12:11:06;15.40;;;3.23;;
70199;SDS011;57587;55.688;37.600;2022-08-11T12:13:55;9.48;;;3.20;;
70199;SDS011;57587;55.688;37.600;2022-08-11T12:16:25;6.18;;;2.80;;
70199;SDS011;57587;55.688;37.600;2022-08-11T12:19:03;5.45;;;3.20;;
70199;SDS011;57587;55.688;37.600;2022-08-11T12:21:33;4.88;;;2.78;;
70199;SDS011;57587;55.688;37.600;2022-08-11T12:24:01;4.97;;;3.47;;
70199;SDS011;57587;55.688;37.600;2022-08-11T12:26:54;5.93;;;2.80;;
70199;SDS011;57587;55.688;37.600;2022-08-11T12:29:44;6.93;;;3.28;;
70199;SDS011;57587;55.688;37.600;2022-08-11T12:32:21;5.68;;;3.00;;
70199;SDS011;57587;55.688;37.600;2022-08-11T12:34:50;8.43;;;2.92;;
70199;SDS011;57587;55.688;37.600;2022-08-11T12:37:22;6.67;;;3.00;;
70199;SDS011;57587;55.688;37.600;2022-08-11T12:40:02;6.30;;;2.80;;
70199;SDS011;57587;55.688;37.600;2022-08-11T12:43:13;4.32;;;2.80;;
70199;SDS011;57587;55.688;37.600;2022-08-11T12:46:15;5.30;;;3.00;;
70199;SDS011;57587;55.688;37.600;2022-08-11T12:49:17;7.20;;;2.90;;
70199;SDS011;57587;55.688;37.600;2022-08-11T12:52:14;4.60;;;2.80;;
70199;SDS011;57587;55.688;37.600;2022-08-11T12:54:56;4.97;;;2.90;;
70199;SDS011;57587;55.688;37.600;2022-08-11T12:57:38;6.00;;;3.00;;
70199;SDS011;57587;55.688;37.600;2022-08-11T13:00:29;20.80;;;6.00;;
70199;SDS011;57587;55.688;37.600;2022-08-11T13:03:18;8.52;;;2.92;;
70199;SDS011;57587;55.688;37.600;2022-08-11T13:06:08;11.80;;;3.73;;
70199;SDS011;57587;55.688;37.600;2022-08-11T13:08:39;6.75;;;3.72;;
70199;SDS011;57587;55.688;37.600;2022-08-11T13:11:08;6.65;;;3.20;;
70199;SDS011;57587;55.688;37.600;2022-08-11T13:14:17;6.45;;;2.80;;
70199;SDS011;57587;55.688;37.600;2022-08-11T13:16:45;5.07;;;3.40;;
70199;SDS011;57587;55.688;37.600;2022-08-11T13:19:31;6.73;;;3.03;;
70199;SDS011;57587;55.688;37.600;2022-08-11T13:22:00;5.82;;;3.00;;
70199;SDS011;57587;55.688;37.600;2022-08-11T13:24:33;8.95;;;3.30;;
70199;SDS011;57587;55.688;37.600;2022-08-11T13:27:02;9.38;;;3.55;;
70199;SDS011;57587;55.688;37.600;2022-08-11T13:29:29;9.63;;;3.85;;
70199;SDS011;57587;55.688;37.600;2022-08-11T13:31:57;8.73;;;3.30;;
70199;SDS011;57587;55.688;37.600;2022-08-11T13:34:28;8.35;;;3.42;;
70199;SDS011;57587;55.688;37.600;2022-08-11T13:37:00;7.82;;;3.30;;
70199;SDS011;57587;55.688;37.600;2022-08-11T13:39:31;8.63;;;3.30;;
70199;SDS011;57587;55.688;37.600;2022-08-11T13:42:00;12.15;;;3.17;;
70199;SDS011;57587;55.688;37.600;2022-08-11T13:44:30;7.00;;;2.93;;
70199;SDS011;57587;55.688;37.600;2022-08-11T13:47:03;14.02;;;3.65;;
70199;SDS011;57587;55.688;37.600;2022-08-11T13:49:34;8.95;;;3.25;;
70199;SDS011;57587;55.688;37.600;2022-08-11T13:52:05;8.48;;;3.10;;
70199;SDS011;57587;55.688;37.600;2022-08-11T13:54:38;6.22;;;3.08;;
70199;SDS011;57587;55.688;37.600;2022-08-11T13:57:09;5.50;;;2.83;;
70199;SDS011;57587;55.688;37.600;2022-08-11T14:00:00;6.70;;;3.05;;
70199;SDS011;57587;55.688;37.600;2022-08-11T14:02:53;7.85;;;2.75;;
70199;SDS011;57587;55.688;37.600;2022-08-11T14:05:28;7.80;;;3.30;;
70199;SDS011;57587;55.688;37.600;2022-08-11T14:08:06;7.55;;;3.20;;
70199;SDS011;57587;55.688;37.600;2022-08-11T14:11:01;8.30;;;3.17;;
70199;SDS011;57587;55.688;37.600;2022-08-11T14:14:08;6.10;;;3.15;;
70199;SDS011;57587;55.688;37.600;2022-08-11T14:16:42;7.07;;;3.20;;
70199;SDS011;57587;55.688;37.600;2022-08-11T14:19:11;8.23;;;3.20;;
70199;SDS011;57587;55.688;37.600;2022-08-11T14:21:41;7.93;;;3.67;;
70199;SDS011;57587;55.688;37.600;2022-08-11T14:24:34;6.00;;;2.97;;
70199;SDS011;57587;55.688;37.600;2022-08-11T14:27:05;7.25;;;3.50;;
70199;SDS011;57587;55.688;37.600;2022-08-11T14:29:54;6.72;;;2.88;;
70199;SDS011;57587;55.688;37.600;2022-08-11T14:32:21;7.53;;;3.30;;
70199;SDS011;57587;55.688;37.600;2022-08-11T14:34:53;6.22;;;3.25;;
70199;SDS011;57587;55.688;37.600;2022-08-11T14:37:21;4.83;;;3.13;;
70199;SDS011;57587;55.688;37.600;2022-08-11T14:39:52;6.97;;;3.22;;
70199;SDS011;57587;55.688;37.600;2022-08-11T14:42:29;7.30;;;3.33;;
70199;SDS011;57587;55.688;37.600;2022-08-11T14:45:15;8.52;;;2.92;;
70199;SDS011;57587;55.688;37.600;2022-08-11T14:48:21;9.63;;;3.63;;
70199;SDS011;57587;55.688;37.600;2022-08-11T14:50:49;7.30;;;2.97;;
70199;SDS011;57587;55.688;37.600;2022-08-11T14:53:17;5.35;;;2.85;;
70199;SDS011;57587;55.688;37.600;2022-08-11T15:00:21;4.45;;;2.60;;
70199;SDS011;57587;55.688;37.600;2022-08-11T15:02:48;6.50;;;3.00;;
70199;SDS011;57587;55.688;37.600;2022-08-11T15:05:33;7.13;;;3.00;;
70199;SDS011;57587;55.688;37.600;2022-08-11T15:08:02;8.70;;;3.33;;
70199;SDS011;57587;55.688;37.600;2022-08-11T15:10:30;8.07;;;3.80;;
70199;SDS011;57587;55.688;37.600;2022-08-11T15:12:57;7.75;;;3.90;;
70199;SDS011;57587;55.688;37.600;2022-08-11T15:15:25;6.32;;;3.22;;
70199;SDS011;57587;55.688;37.600;2022-08-11T15:18:11;12.13;;;2.90;;
70199;SDS011;57587;55.688;37.600;2022-08-11T15:20:42;7.32;;;4.20;;
70199;SDS011;57587;55.688;37.600;2022-08-11T15:23:29;9.00;;;3.20;;
70199;SDS011;57587;55.688;37.600;2022-08-11T15:26:21;6.30;;;3.30;;
70199;SDS011;57587;55.688;37.600;2022-08-11T15:29:14;10.48;;;2.83;;
70199;SDS011;57587;55.688;37.600;2022-08-11T15:32:07;7.50;;;3.30;;
70199;SDS011;57587;55.688;37.600;2022-08-11T15:34:50;8.15;;;3.60;;
70199;SDS011;57587;55.688;37.600;2022-08-11T15:37:40;4.40;;;3.00;;
70199;SDS011;57587;55.688;37.600;2022-08-11T15:40:17;7.93;;;3.60;;
70199;SDS011;57587;55.688;37.600;2022-08-11T15:49:29;8.25;;;3.72;;
70199;SDS011;57587;55.688;37.600;2022-08-11T15:52:21;8.23;;;3.65;;
70199;SDS011;57587;55.688;37.600;2022-08-11T15:54:50;9.02;;;3.42;;
70199;SDS011;57587;55.688;37.600;2022-08-11T15:57:18;7.40;;;3.35;;
70199;SDS011;57587;55.688;37.600;2022-08-11T16:00:06;11.17;;;3.50;;
70199;SDS011;57587;55.688;37.600;2022-08-11T16:02:52;13.05;;;4.22;;
70199;SDS011;57587;55.688;37.600;2022-08-11T16:05:42;5.95;;;3.55;;
70199;SDS011;57587;55.688;37.600;2022-08-11T16:08:19;5.70;;;3.10;;
70199;SDS011;57587;55.688;37.600;2022-08-11T16:10:59;5.93;;;3.13;;
70199;SDS011;57587;55.688;37.600;2022-08-11T16:13:31;8.30;;;3.33;;
70199;SDS011;57587;55.688;37.600;2022-08-11T16:16:01;4.40;;;3.00;;
70199;SDS011;57587;55.688;37.600;2022-08-11T16:18:52;4.93;;;3.10;;
70199;SDS011;57587;55.688;37.600;2022-08-11T16:21:42;12.05;;;6.80;;
70199;SDS011;57587;55.688;37.600;2022-08-11T16:24:12;13.18;;;10.40;;
70199;SDS011;57587;55.688;37.600;2022-08-11T16:27:01;7.33;;;3.30;;
70199;SDS011;57587;55.688;37.600;2022-08-11T16:29:43;11.65;;;6.05;;
70199;SDS011;57587;55.688;37.600;2022-08-11T16:32:20;7.78;;;4.88;;
70199;SDS011;57587;55.688;37.600;2022-08-11T16:34:51;8.10;;;4.13;;
70199;SDS011;57587;55.688;37.600;2022-08-11T16:37:45;6.22;;;3.53;;
70199;SDS011;57587;55.688;37.600;2022-08-11T16:40:31;8.93;;;4.33;;
70199;SDS011;57587;55.688;37.600;2022-08-11T16:43:07;7.47;;;4.07;;
70199;SDS011;57587;55.688;37.600;2022-08-11T16:45:56;6.95;;;3.72;;
70199;SDS011;57587;55.688;37.600;2022-08-11T16:49:16;10.35;;;3.85;;
70199;SDS011;57587;55.688;37.600;2022-08-11T16:51:48;14.50;;;4.18;;
70199;SDS011;57587;55.688;37.600;2022-08-11T16:54:16;9.57;;;4.40;;
70199;SDS011;57587;55.688;37.600;2022-08-11T16:56:45;7.05;;;4.00;;
70199;SDS011;57587;55.688;37.600;2022-08-11T16:59:18;10.05;;;3.38;;
70199;SDS011;57587;55.688;37.600;2022-08-11T17:02:09;8.85;;;4.22;;
70199;SDS011;57587;55.688;37.600;2022-08-11T17:05:02;8.82;;;3.70;;
70199;SDS011;57587;55.688;37.600;2022-08-11T17:08:04;14.67;;;4.70;;
70199;SDS011;57587;55.688;37.600;2022-08-11T17:10:56;9.95;;;4.85;;
70199;SDS011;57587;55.688;37.600;2022-08-11T17:13:49;15.73;;;5.97;;
70199;SDS011;57587;55.688;37.600;2022-08-11T17:16:22;14.18;;;5.90;;
70199;SDS011;57587;55.688;37.600;2022-08-11T17:22:04;28.43;;;6.53;;
70199;SDS011;57587;55.688;37.600;2022-08-11T17:24:50;22.58;;;6.30;;
70199;SDS011;57587;55.688;37.600;2022-08-11T17:27:19;16.65;;;6.03;;
70199;SDS011;57587;55.688;37.600;2022-08-11T17:29:50;17.60;;;5.68;;
70199;SDS011;57587;55.688;37.600;2022-08-11T17:32:27;18.67;;;6.40;;
70199;SDS011;57587;55.688;37.600;2022-08-11T17:35:24;17.33;;;6.33;;
70199;SDS011;57587;55.688;37.600;2022-08-11T17:40:40;14.15;;;5.47;;
70199;SDS011;57587;55.688;37.600;2022-08-11T17:43:30;17.35;;;5.60;;
70199;SDS011;57587;55.688;37.600;2022-08-11T17:46:21;9.23;;;4.50;;
70199;SDS011;57587;55.688;37.600;2022-08-11T17:49:08;12.47;;;4.93;;
70199;SDS011;57587;55.688;37.600;2022-08-11T17:51:37;11.98;;;4.68;;
70199;SDS011;57587;55.688;37.600;2022-08-11T17:54:25;11.65;;;5.28;;
70199;SDS011;57587;55.688;37.600;2022-08-11T17:57:12;11.15;;;5.10;;
70199;SDS011;57587;55.688;37.600;2022-08-11T17:59:59;17.27;;;5.40;;
70199;SDS011;57587;55.688;37.600;2022-08-11T18:02:44;17.50;;;4.60;;
70199;SDS011;57587;55.688;37.600;2022-08-11T18:05:33;26.67;;;6.18;;
70199;SDS011;57587;55.688;37.600;2022-08-11T18:08:04;20.52;;;6.10;;
70199;SDS011;57587;55.688;37.600;2022-08-11T18:10:55;16.60;;;6.55;;
70199;SDS011;57587;55.688;37.600;2022-08-11T18:14:04;20.17;;;6.70;;
70199;SDS011;57587;55.688;37.600;2022-08-11T18:16:52;23.30;;;10.97;;
70199;SDS011;57587;55.688;37.600;2022-08-11T18:19:37;10.13;;;5.50;;
70199;SDS011;57587;55.688;37.600;2022-08-11T18:22:24;19.02;;;7.53;;
70199;SDS011;57587;55.688;37.600;2022-08-11T18:25:30;16.85;;;10.77;;
70199;SDS011;57587;55.688;37.600;2022-08-11T18:28:23;13.05;;;6.95;;
70199;SDS011;57587;55.688;37.600;2022-08-11T18:31:14;15.53;;;6.70;;
70199;SDS011;57587;55.688;37.600;2022-08-11T18:34:03;11.30;;;5.57;;
70199;SDS011;57587;55.688;37.600;2022-08-11T18:36:51;11.93;;;6.20;;
70199;SDS011;57587;55.688;37.600;2022-08-11T18:39:55;12.50;;;5.82;;
70199;SDS011;57587;55.688;37.600;2022-08-11T18:42:45;13.45;;;5.38;;
70199;SDS011;57587;55.688;37.600;2022-08-11T18:45:33;11.97;;;5.77;;
70199;SDS011;57587;55.688;37.600;2022-08-11T18:48:34;11.45;;;5.75;;
70199;SDS011;57587;55.688;37.600;2022-08-11T18:51:23;8.85;;;5.00;;
70199;SDS011;57587;55.688;37.600;2022-08-11T18:54:11;10.75;;;4.93;;
70199;SDS011;57587;55.688;37.600;2022-08-11T18:57:00;8.25;;;4.90;;
70199;SDS011;57587;55.688;37.600;2022-08-11T18:59:48;10.73;;;5.30;;
70199;SDS011;57587;55.688;37.600;2022-08-11T19:02:36;11.63;;;6.32;;
70199;SDS011;57587;55.688;37.600;2022-08-11T19:05:23;11.60;;;6.60;;
70199;SDS011;57587;55.688;37.600;2022-08-11T19:08:36;18.00;;;9.48;;
70199;SDS011;57587;55.688;37.600;2022-08-11T19:11:26;14.95;;;8.25;;
70199;SDS011;57587;55.688;37.600;2022-08-11T19:14:15;15.93;;;7.47;;
70199;SDS011;57587;55.688;37.600;2022-08-11T19:17:03;10.82;;;7.03;;
70199;SDS011;57587;55.688;37.600;2022-08-11T19:20:12;12.63;;;7.00;;
70199;SDS011;57587;55.688;37.600;2022-08-11T19:23:02;15.82;;;7.55;;
70199;SDS011;57587;55.688;37.600;2022-08-11T19:25:50;11.05;;;7.38;;
70199;SDS011;57587;55.688;37.600;2022-08-11T19:28:37;11.73;;;6.70;;
70199;SDS011;57587;55.688;37.600;2022-08-11T19:31:25;12.57;;;6.47;;